Time;durP1;ratioP1;P1;durP2;ratioP2;P2;SDS_P1;SDS_P2;PMS_P1;PMS_P2;Temp;Humidity;BMP_temperature;BMP_pressure;BME280_temperature;BME280_humidity;BME280_pressure;Samples;Min_cycle;Max_cycle;Signal;HPM_P1;HPM_P2
2022/06/10 00:01:13;;;;;;;0.40;0.40;;;11.70;57.50;;;;;;5052217;28;20276;-77
2022/06/10 00:03:39;;;;;;;0.50;0.50;;;11.60;57.80;;;;;;5052566;28;20690;-77
2022/06/10 00:06:07;;;;;;;0.50;0.50;;;11.60;71.70;;;;;;5052283;28;20205;-76
2022/06/10 00:08:36;;;;;;;0.50;0.50;;;11.60;49.70;;;;;;5052172;28;20270;-76
2022/06/10 00:11:03;;;;;;;0.60;0.60;;;11.60;55.90;;;;;;5051635;28;20179;-76
2022/06/10 00:13:31;;;;;;;0.50;0.50;;;11.50;77.60;;;;;;5052321;28;20187;-76
2022/06/10 00:15:57;;;;;;;0.50;0.50;;;11.40;91.60;;;;;;5052233;28;20178;-77
2022/06/10 00:18:25;;;;;;;0.40;0.40;;;11.40;85.70;;;;;;5052755;28;20178;-77
2022/06/10 00:20:51;;;;;;;0.50;0.50;;;11.40;89.00;;;;;;5051873;28;20583;-77
2022/06/10 00:23:17;;;;;;;0.60;0.60;;;11.40;91.70;;;;;;5052829;28;20175;-77
2022/06/10 00:25:43;;;;;;;0.40;0.40;;;11.40;98.30;;;;;;5053350;28;20178;-77
2022/06/10 00:28:09;;;;;;;0.50;0.50;;;11.30;99.90;;;;;;5053207;28;20190;-78
2022/06/10 00:30:36;;;;;;;0.53;0.53;;;11.20;99.90;;;;;;5051835;28;20267;-77
2022/06/10 00:33:02;;;;;;;0.50;0.50;;;11.20;99.90;;;;;;5052077;28;20735;-77
2022/06/10 00:35:28;;;;;;;0.47;0.47;;;11.10;99.90;;;;;;5052102;28;20182;-77
2022/06/10 00:37:54;;;;;;;0.50;0.50;;;11.10;99.90;;;;;;5051750;28;20262;-77
2022/06/10 00:40:29;;;;;;;0.50;0.50;;;11.10;99.90;;;;;;5051490;28;20202;-76
2022/06/10 00:42:56;;;;;;;0.50;0.50;;;11.00;99.90;;;;;;5052602;28;20225;-78
2022/06/10 00:45:50;;;;;;;0.40;0.40;;;11.00;99.90;;;;;;5052636;28;20262;-78
2022/06/10 00:48:19;;;;;;;0.40;0.40;;;11.00;99.90;;;;;;5052845;28;20179;-78
2022/06/10 00:50:46;;;;;;;0.60;0.60;;;10.90;99.90;;;;;;5051148;28;20190;-78
2022/06/10 00:53:15;;;;;;;0.50;0.50;;;11.00;99.90;;;;;;5052028;28;20226;-78
2022/06/10 00:55:44;;;;;;;0.40;0.40;;;11.00;99.90;;;;;;5051840;28;20431;-77
2022/06/10 00:58:18;;;;;;;0.50;0.50;;;11.00;99.90;;;;;;5052394;28;20228;-78
2022/06/10 01:00:45;;;;;;;0.40;0.40;;;11.00;99.90;;;;;;5052019;28;20675;-78
2022/06/10 01:03:11;;;;;;;0.43;0.43;;;11.00;99.90;;;;;;5052288;28;20202;-78
2022/06/10 01:05:36;;;;;;;0.50;0.50;;;11.00;99.90;;;;;;5052536;28;20229;-78
2022/06/10 01:08:11;;;;;;;0.50;0.50;;;10.90;99.90;;;;;;5052107;28;20167;-77
2022/06/10 01:11:11;;;;;;;0.60;0.60;;;10.90;99.90;;;;;;5051679;28;20642;-77
2022/06/10 01:13:49;;;;;;;0.50;0.50;;;10.80;99.90;;;;;;5046960;28;20241;-78
2022/06/10 01:16:30;;;;;;;0.40;0.40;;;10.80;99.90;;;;;;5051538;28;20554;-77
2022/06/10 01:19:36;;;;;;;0.50;0.50;;;10.70;99.90;;;;;;5051013;28;20168;-77
2022/06/10 01:25:56;;;;;;;0.40;0.40;;;10.80;99.90;;;;;;5049919;28;20703;-78
2022/06/10 01:28:40;;;;;;;0.50;0.50;;;10.70;99.90;;;;;;5052715;28;20249;-78
2022/06/10 01:31:21;;;;;;;0.50;0.50;;;10.70;99.90;;;;;;5051805;28;20171;-77
2022/06/10 01:34:28;;;;;;;0.50;0.50;;;10.70;99.90;;;;;;5052342;28;20179;-77
2022/06/10 01:37:09;;;;;;;0.50;0.50;;;10.60;99.90;;;;;;4951627;29;20676;-77
2022/06/10 01:39:49;;;;;;;0.50;0.50;;;10.60;99.90;;;;;;5044215;28;20648;-77
2022/06/10 01:42:22;;;;;;;0.60;0.60;;;10.60;99.90;;;;;;5050846;28;20218;-77
2022/06/10 01:45:12;;;;;;;0.50;0.50;;;10.50;99.90;;;;;;5051085;28;20680;-77
2022/06/10 01:47:54;;;;;;;0.50;0.50;;;10.50;99.90;;;;;;5051350;28;20222;-77
2022/06/10 01:50:44;;;;;;;0.50;0.50;;;10.50;99.90;;;;;;5050513;28;20197;-77
2022/06/10 01:53:36;;;;;;;0.50;0.50;;;10.50;99.90;;;;;;5050935;28;20198;-78
2022/06/10 01:56:20;;;;;;;0.40;0.40;;;10.50;99.90;;;;;;5007526;28;20648;-77
2022/06/10 01:58:56;;;;;;;0.50;0.50;;;10.40;99.90;;;;;;5051111;28;20254;-77
2022/06/10 02:01:29;;;;;;;0.50;0.50;;;10.40;99.90;;;;;;5052120;28;20219;-77
2022/06/10 02:04:01;;;;;;;0.50;0.50;;;10.40;99.90;;;;;;5055125;28;20187;-77
2022/06/10 02:06:36;;;;;;;0.43;0.43;;;10.40;99.90;;;;;;5054670;28;20176;-78
2022/06/10 02:09:09;;;;;;;0.50;0.50;;;10.40;99.90;;;;;;5054208;28;20175;-78
2022/06/10 02:11:40;;;;;;;0.40;0.40;;;10.40;99.90;;;;;;5054495;28;20606;-78
2022/06/10 02:14:18;;;;;;;0.60;0.60;;;10.30;99.90;;;;;;5054467;28;20270;-77
2022/06/10 02:16:47;;;;;;;0.50;0.50;;;10.30;99.90;;;;;;5054703;28;20180;-77
2022/06/10 02:19:35;;;;;;;0.40;0.40;;;10.30;99.90;;;;;;5054085;28;20186;-77
2022/06/10 02:22:19;;;;;;;0.50;0.50;;;10.30;99.90;;;;;;5054308;28;20678;-78
2022/06/10 02:24:57;;;;;;;0.50;0.50;;;10.20;99.90;;;;;;5054782;28;20175;-77
2022/06/10 02:27:27;;;;;;;0.53;0.53;;;10.20;99.90;;;;;;5054431;28;20270;-78
2022/06/10 02:30:00;;;;;;;0.50;0.50;;;10.20;99.90;;;;;;5054278;28;20190;-77
2022/06/10 02:32:26;;;;;;;0.50;0.50;;;10.20;99.90;;;;;;5054310;28;20553;-78
2022/06/10 02:34:54;;;;;;;0.60;0.60;;;10.20;99.90;;;;;;5054326;28;20182;-78
2022/06/10 02:37:26;;;;;;;0.53;0.53;;;10.20;99.90;;;;;;5054403;28;20237;-77
2022/06/10 02:40:08;;;;;;;0.50;0.50;;;10.10;99.90;;;;;;5053813;28;20206;-77
2022/06/10 02:42:45;;;;;;;0.60;0.60;;;10.10;99.90;;;;;;5054031;28;20226;-77
2022/06/10 02:45:18;;;;;;;0.50;0.50;;;10.10;99.90;;;;;;5055676;28;20182;-78
2022/06/10 02:47:57;;;;;;;0.60;0.60;;;10.10;99.90;;;;;;5054757;28;20175;-77
2022/06/10 02:50:23;;;;;;;0.50;0.50;;;10.00;99.90;;;;;;5053079;28;20174;-78
2022/06/10 02:52:49;;;;;;;0.60;0.60;;;10.00;99.90;;;;;;5054287;28;20199;-77
2022/06/10 02:55:19;;;;;;;0.50;0.50;;;10.00;99.90;;;;;;5054189;28;20187;-78
2022/06/10 03:03:40;;;;;;;0.57;0.57;;;9.90;99.90;;;;;;5053833;28;20217;-78
2022/06/10 03:06:22;;;;;;;0.60;0.60;;;9.90;99.90;;;;;;5053822;28;20179;-77
2022/06/10 03:08:59;;;;;;;0.50;0.50;;;9.90;99.90;;;;;;5053709;28;20257;-78
2022/06/10 03:11:56;;;;;;;0.57;0.57;;;9.80;99.90;;;;;;5053628;28;20194;-78
2022/06/10 03:14:41;;;;;;;0.60;0.60;;;9.80;99.90;;;;;;5039408;28;20190;-77
2022/06/10 03:17:16;;;;;;;0.60;0.60;;;9.80;99.90;;;;;;5053582;28;20206;-78
2022/06/10 03:19:54;;;;;;;0.50;0.50;;;9.80;99.90;;;;;;5053009;28;20174;-78
2022/06/10 03:23:01;;;;;;;0.60;0.60;;;9.80;99.90;;;;;;5052950;28;20214;-77
2022/06/10 03:25:50;;;;;;;0.60;0.60;;;9.80;99.90;;;;;;5052836;28;20220;-77
2022/06/10 03:28:15;;;;;;;0.50;0.50;;;9.90;99.90;;;;;;5068446;22;20285;-78
2022/06/10 03:30:54;;;;;;;0.53;0.53;;;9.90;99.90;;;;;;5054747;28;20175;-79
2022/06/10 03:33:28;;;;;;;0.50;0.50;;;9.80;99.90;;;;;;5034393;28;20180;-78
2022/06/10 03:36:00;;;;;;;0.50;0.50;;;9.80;99.90;;;;;;5034653;28;20543;-79
2022/06/10 03:38:27;;;;;;;0.50;0.50;;;9.80;99.90;;;;;;5034531;28;20172;-78
2022/06/10 03:40:56;;;;;;;0.60;0.60;;;9.90;99.90;;;;;;5034090;28;20225;-79
2022/06/10 03:43:22;;;;;;;0.50;0.50;;;9.90;99.90;;;;;;5033230;28;20214;-79
2022/06/10 03:45:56;;;;;;;0.60;0.60;;;9.90;99.90;;;;;;5032770;28;20207;-77
2022/06/10 03:48:23;;;;;;;0.40;0.40;;;9.90;99.90;;;;;;5031529;28;20620;-77
2022/06/10 03:50:49;;;;;;;0.50;0.50;;;9.90;99.90;;;;;;5032121;28;20184;-84
2022/06/10 03:53:19;;;;;;;0.60;0.60;;;10.00;99.90;;;;;;5032805;28;20184;-77
2022/06/10 03:55:44;;;;;;;0.50;0.50;;;10.00;99.90;;;;;;5032846;28;20176;-77
2022/06/10 03:58:10;;;;;;;0.60;0.60;;;10.00;99.90;;;;;;5032664;28;20176;-78
2022/06/10 04:00:36;;;;;;;0.60;0.60;;;10.00;99.90;;;;;;5032633;28;20296;-77
2022/06/10 04:03:02;;;;;;;0.50;0.50;;;10.00;99.90;;;;;;5032611;28;20334;-77
2022/06/10 04:05:28;;;;;;;0.63;0.63;;;10.00;99.90;;;;;;5032795;28;20615;-77
2022/06/10 04:07:53;;;;;;;0.60;0.60;;;10.10;99.90;;;;;;5032529;28;20199;-76
2022/06/10 04:10:23;;;;;;;0.50;0.50;;;10.10;99.90;;;;;;5032212;28;20175;-77
2022/06/10 04:12:49;;;;;;;0.40;0.40;;;10.20;99.90;;;;;;5029407;28;20204;-78
2022/06/10 04:15:15;;;;;;;0.60;0.60;;;10.30;99.90;;;;;;5032263;28;20186;-77
2022/06/10 04:17:46;;;;;;;0.50;0.50;;;10.30;99.90;;;;;;5032275;28;20549;-78
2022/06/10 04:20:15;;;;;;;0.50;0.50;;;10.40;99.90;;;;;;5031254;28;20195;-77
2022/06/10 04:22:41;;;;;;;0.50;0.50;;;10.50;99.90;;;;;;5029219;28;20203;-78
2022/06/10 04:25:08;;;;;;;0.40;0.40;;;10.60;99.90;;;;;;5030920;28;20221;-78
2022/06/10 04:27:33;;;;;;;0.47;0.47;;;10.80;99.90;;;;;;5031495;28;20203;-78
2022/06/10 04:29:59;;;;;;;0.40;0.40;;;10.80;99.90;;;;;;5031551;28;20541;-78
2022/06/10 04:32:24;;;;;;;0.50;0.50;;;10.90;99.90;;;;;;5031377;28;20207;-78
2022/06/10 04:34:50;;;;;;;0.50;0.50;;;10.90;99.90;;;;;;5031775;28;20663;-78
2022/06/10 04:37:15;;;;;;;0.50;0.50;;;11.10;99.90;;;;;;5031934;28;20179;-76
2022/06/10 04:39:41;;;;;;;0.50;0.50;;;11.30;99.90;;;;;;5031380;28;20182;-77
2022/06/10 04:42:07;;;;;;;0.47;0.47;;;11.40;99.90;;;;;;5031511;28;20692;-78
2022/06/10 04:44:33;;;;;;;0.40;0.40;;;11.60;99.90;;;;;;5029689;28;20250;-77
2022/06/10 04:46:58;;;;;;;0.50;0.50;;;11.60;99.90;;;;;;5031673;28;20282;-76
2022/06/10 04:49:24;;;;;;;0.50;0.50;;;11.70;99.90;;;;;;5026018;28;20537;-76
2022/06/10 04:51:50;;;;;;;0.40;0.40;;;11.90;99.90;;;;;;5031509;28;20199;-77
2022/06/10 04:54:15;;;;;;;0.60;0.60;;;12.10;98.50;;;;;;5031451;28;20636;-79
2022/06/10 04:56:41;;;;;;;0.50;0.50;;;12.40;52.70;;;;;;5032047;28;20185;-75
2022/06/10 04:59:06;;;;;;;0.30;0.30;;;12.60;5.90;;;;;;5032665;28;20186;-78
2022/06/10 05:01:32;;;;;;;0.40;0.40;;;12.80;1.00;;;;;;5031828;28;20215;-78
2022/06/10 05:03:57;;;;;;;0.50;0.50;;;13.10;1.00;;;;;;5032141;28;20561;-76
2022/06/10 05:06:23;;;;;;;0.33;0.33;;;13.30;1.00;;;;;;5032696;28;20171;-77
2022/06/10 05:08:49;;;;;;;0.50;0.50;;;13.40;1.00;;;;;;5030517;28;20188;-78
2022/06/10 05:11:15;;;;;;;0.43;0.43;;;13.60;1.00;;;;;;5032021;28;20222;-78
2022/06/10 05:13:40;;;;;;;0.50;0.50;;;13.70;1.00;;;;;;5032168;28;20661;-77
2022/06/10 05:16:06;;;;;;;0.30;0.30;;;13.80;1.00;;;;;;5029217;28;20207;-79
2022/06/10 05:18:32;;;;;;;0.40;0.40;;;13.90;1.00;;;;;;5024111;28;20177;-79
2022/06/10 05:20:58;;;;;;;0.40;0.40;;;13.70;1.00;;;;;;5023814;28;20207;-75
2022/06/10 05:23:25;;;;;;;0.40;0.40;;;13.70;1.00;;;;;;5031389;28;20287;-74
2022/06/10 05:25:51;;;;;;;0.40;0.40;;;13.70;1.00;;;;;;5031455;28;20203;-75
2022/06/10 05:28:18;;;;;;;0.40;0.40;;;13.90;1.00;;;;;;5033036;28;20191;-80
2022/06/10 05:30:44;;;;;;;0.40;0.40;;;13.70;1.00;;;;;;5042816;28;20214;-78
2022/06/10 05:33:11;;;;;;;0.40;0.40;;;13.60;1.00;;;;;;5035802;28;20279;-75
2022/06/10 05:35:38;;;;;;;0.40;0.40;;;13.60;1.00;;;;;;5030105;28;20188;-75
2022/06/10 05:38:04;;;;;;;0.37;0.37;;;13.70;1.00;;;;;;5034271;28;20180;-74
2022/06/10 05:40:31;;;;;;;0.40;0.40;;;13.70;1.00;;;;;;5034173;28;20490;-74
2022/06/10 05:42:57;;;;;;;0.40;0.40;;;13.70;1.00;;;;;;5034808;28;20287;-74
2022/06/10 05:45:23;;;;;;;0.50;0.50;;;13.60;1.00;;;;;;5034396;28;20660;-74
2022/06/10 05:47:52;;;;;;;0.40;0.40;;;13.50;1.00;;;;;;5033916;28;20310;-74
2022/06/10 05:50:26;;;;;;;0.40;0.40;;;13.60;1.00;;;;;;5034101;28;20577;-74
2022/06/10 05:52:52;;;;;;;0.50;0.50;;;13.50;1.00;;;;;;5034357;28;20192;-75
2022/06/10 05:55:18;;;;;;;0.40;0.40;;;13.60;1.00;;;;;;5034483;28;20580;-74
2022/06/10 05:57:44;;;;;;;0.40;0.40;;;13.70;1.00;;;;;;5034751;28;20198;-75
2022/06/10 06:00:14;;;;;;;0.40;0.40;;;13.90;1.00;;;;;;5033627;28;20620;-75
2022/06/10 06:02:41;;;;;;;0.40;0.40;;;14.00;1.00;;;;;;5028456;28;20246;-75
2022/06/10 06:05:09;;;;;;;0.40;0.40;;;14.00;1.00;;;;;;5030097;28;20183;-74
2022/06/10 06:07:34;;;;;;;0.40;0.40;;;14.10;1.00;;;;;;5031169;28;20742;-73
2022/06/10 06:10:01;;;;;;;0.40;0.40;;;14.10;1.00;;;;;;5020904;28;20207;-74
2022/06/10 06:12:26;;;;;;;0.40;0.40;;;14.20;1.00;;;;;;5014220;28;20278;-75
2022/06/10 06:14:52;;;;;;;0.40;0.40;;;14.20;1.00;;;;;;5013918;28;20212;-75
2022/06/10 06:17:19;;;;;;;0.40;0.40;;;14.20;1.00;;;;;;5014542;28;20196;-77
2022/06/10 06:19:44;;;;;;;0.40;0.40;;;14.30;1.00;;;;;;5022491;28;20666;-77
2022/06/10 06:22:10;;;;;;;0.40;0.40;;;14.40;1.00;;;;;;5032197;28;20270;-77
2022/06/10 06:24:38;;;;;;;0.40;0.40;;;14.30;1.00;;;;;;5031066;28;20180;-77
2022/06/10 06:27:05;;;;;;;0.40;0.40;;;14.40;1.00;;;;;;5039123;28;20196;-76
2022/06/10 06:29:31;;;;;;;0.40;0.40;;;14.40;1.00;;;;;;5028831;28;20853;-76
2022/06/10 06:31:56;;;;;;;0.40;0.40;;;14.60;1.00;;;;;;5033487;28;20204;-76
2022/06/10 06:34:24;;;;;;;0.30;0.30;;;14.60;1.00;;;;;;5031692;28;20238;-77
2022/06/10 06:36:51;;;;;;;0.40;0.40;;;14.60;1.00;;;;;;5030683;28;20171;-78
2022/06/10 06:39:19;;;;;;;0.40;0.40;;;14.70;1.00;;;;;;5029731;28;20191;-76
2022/06/10 06:41:45;;;;;;;0.40;0.40;;;14.70;1.00;;;;;;5030024;28;20218;-75
2022/06/10 06:44:11;;;;;;;0.37;0.37;;;14.80;1.00;;;;;;5032738;28;20688;-76
2022/06/10 06:46:39;;;;;;;0.40;0.40;;;15.00;1.00;;;;;;5030233;28;20274;-79
2022/06/10 06:49:11;;;;;;;0.40;0.40;;;15.10;1.00;;;;;;5031428;28;20235;-78
2022/06/10 06:51:38;;;;;;;0.43;0.43;;;15.30;1.00;;;;;;5033047;28;20287;-77
2022/06/10 06:54:04;;;;;;;0.30;0.30;;;15.50;99.90;;;;;;5033198;28;20179;-76
2022/06/10 06:56:29;;;;;;;0.43;0.43;;;15.50;99.90;;;;;;5033083;28;20531;-76
2022/06/10 06:58:56;;;;;;;0.50;0.50;;;15.60;99.90;;;;;;5032336;28;20248;-76
2022/06/10 07:01:22;;;;;;;0.30;0.30;;;15.70;99.90;;;;;;5032571;28;20718;-77
2022/06/10 07:03:48;;;;;;;0.40;0.40;;;15.80;99.90;;;;;;5032771;28;20176;-76
2022/06/10 07:06:14;;;;;;;0.40;0.40;;;15.90;99.90;;;;;;5032805;28;20183;-77
2022/06/10 07:08:39;;;;;;;0.43;0.43;;;16.10;93.60;;;;;;5047271;28;20181;-76
2022/06/10 07:11:07;;;;;;;0.40;0.40;;;16.10;1.00;;;;;;5051929;28;20548;-77
2022/06/10 07:13:33;;;;;;;0.50;0.50;;;16.30;1.00;;;;;;5052633;28;20205;-76
2022/06/10 07:16:01;;;;;;;0.30;0.30;;;16.50;99.90;;;;;;5052497;28;20246;-77
2022/06/10 07:18:27;;;;;;;0.40;0.40;;;16.50;99.90;;;;;;5052952;28;20187;-75
2022/06/10 07:20:53;;;;;;;0.40;0.40;;;16.60;99.90;;;;;;5052037;28;20249;-76
2022/06/10 07:23:19;;;;;;;0.40;0.40;;;16.80;99.90;;;;;;5052687;28;20206;-76
2022/06/10 07:25:45;;;;;;;0.40;0.40;;;17.10;1.00;;;;;;5045426;28;20225;-76
2022/06/10 07:28:11;;;;;;;0.30;0.30;;;17.10;1.00;;;;;;5047475;28;20195;-76
2022/06/10 07:30:38;;;;;;;0.40;0.40;;;17.20;1.00;;;;;;5044794;28;20191;-77
2022/06/10 07:33:04;;;;;;;0.40;0.40;;;17.30;1.00;;;;;;5031597;28;20748;-77
2022/06/10 07:35:30;;;;;;;0.30;0.30;;;17.40;1.00;;;;;;5036445;28;20283;-78
2022/06/10 07:37:57;;;;;;;0.40;0.40;;;17.50;82.50;;;;;;5030254;28;20271;-75
2022/06/10 07:43:15;;;;;;;0.40;0.40;;;18.20;1.00;;;;;;5031533;28;20270;-77
2022/06/10 07:45:40;;;;;;;0.40;0.40;;;18.60;99.90;;;;;;5032835;28;20184;-77
2022/06/10 07:48:06;;;;;;;0.33;0.33;;;18.90;1.00;;;;;;5031358;28;20474;-75
2022/06/10 07:50:33;;;;;;;0.40;0.40;;;19.20;1.00;;;;;;5031516;28;20245;-75
2022/06/10 07:52:59;;;;;;;0.30;0.30;;;19.40;1.00;;;;;;5031973;28;20230;-75
2022/06/10 07:55:25;;;;;;;0.37;0.37;;;19.70;1.00;;;;;;5032085;28;20172;-75
2022/06/10 07:57:51;;;;;;;0.40;0.40;;;19.90;1.00;;;;;;5046217;28;20191;-75
2022/06/10 08:00:17;;;;;;;0.40;0.40;;;20.30;1.00;;;;;;5051313;28;20172;-74
2022/06/10 08:02:43;;;;;;;0.40;0.40;;;20.70;1.00;;;;;;5051540;28;20731;-77
2022/06/10 08:05:13;;;;;;;0.33;0.33;;;21.20;1.00;;;;;;5051711;28;20313;-76
2022/06/10 08:07:39;;;;;;;0.33;0.33;;;21.80;1.00;;;;;;5051864;28;20202;-74
2022/06/10 08:10:06;;;;;;;0.40;0.40;;;22.00;1.00;;;;;;5051221;28;20636;-73
2022/06/10 08:12:32;;;;;;;0.40;0.40;;;22.30;1.00;;;;;;5051474;28;20205;-73
2022/06/10 08:14:58;;;;;;;0.30;0.30;;;22.50;1.00;;;;;;5047142;28;20600;-72
2022/06/10 08:17:23;;;;;;;0.30;0.30;;;22.70;1.00;;;;;;5034129;28;20179;-77
2022/06/10 08:19:49;;;;;;;0.50;0.50;;;23.20;1.00;;;;;;5031667;28;20233;-76
2022/06/10 08:22:33;;;;;;;0.40;0.40;;;23.50;1.00;;;;;;5029685;28;20665;-77
2022/06/10 08:24:59;;;;;;;0.40;0.40;;;23.60;1.00;;;;;;5031445;28;20254;-77
2022/06/10 08:27:25;;;;;;;0.40;0.40;;;23.90;1.00;;;;;;5017417;28;20219;-77
2022/06/10 08:29:51;;;;;;;0.40;0.40;;;24.20;1.00;;;;;;5011826;28;20176;-77
2022/06/10 08:32:17;;;;;;;0.50;0.50;;;24.40;1.00;;;;;;5012336;28;20207;-77
2022/06/10 08:34:42;;;;;;;0.40;0.40;;;24.60;1.00;;;;;;5019485;28;20184;-76
2022/06/10 08:37:11;;;;;;;0.30;0.30;;;24.60;1.00;;;;;;5041091;28;20183;-77
2022/06/10 08:39:37;;;;;;;0.40;0.40;;;24.60;1.00;;;;;;5030806;28;20172;-77
2022/06/10 08:42:20;;;;;;;0.50;0.50;;;24.50;1.00;;;;;;5031412;28;20224;-77
2022/06/10 08:44:58;;;;;;;0.40;0.40;;;24.40;1.00;;;;;;5031481;28;20218;-77
2022/06/10 08:48:01;;;;;;;0.30;0.30;;;24.90;1.00;;;;;;5031334;28;20219;-77
2022/06/10 08:51:06;;;;;;;0.30;0.30;;;25.40;1.00;;;;;;5036852;28;20179;-76
2022/06/10 08:53:50;;;;;;;0.40;0.40;;;25.60;1.00;;;;;;5051745;28;20257;-78
2022/06/10 08:56:30;;;;;;;0.40;0.40;;;25.40;1.00;;;;;;5046865;28;20234;-76
2022/06/10 08:59:06;;;;;;;0.40;0.40;;;25.70;1.00;;;;;;5030741;28;20262;-77
2022/06/10 09:01:42;;;;;;;0.30;0.30;;;25.50;1.00;;;;;;5028642;28;20301;-77
2022/06/10 09:04:24;;;;;;;0.47;0.47;;;25.50;1.00;;;;;;5029781;28;20251;-77
2022/06/10 09:06:54;;;;;;;0.40;0.40;;;25.60;1.00;;;;;;5031531;28;20516;-77
2022/06/10 09:09:26;;;;;;;0.30;0.30;;;25.40;1.00;;;;;;5030713;28;20171;-76
2022/06/10 09:12:03;;;;;;;0.40;0.40;;;25.20;1.00;;;;;;5030408;28;20224;-77
2022/06/10 09:14:29;;;;;;;0.40;0.40;;;25.20;1.00;;;;;;5033906;28;20195;-77
2022/06/10 09:16:58;;;;;;;0.43;0.43;;;25.20;1.00;;;;;;5035023;28;20175;-77
2022/06/10 09:19:48;;;;;;;0.40;0.40;;;25.60;1.00;;;;;;5035458;28;20621;-77
2022/06/10 09:22:38;;;;;;;0.40;0.40;;;25.70;1.00;;;;;;5031498;28;20281;-77
2022/06/10 09:25:10;;;;;;;0.40;0.40;;;25.80;1.00;;;;;;5025001;28;20230;-79
2022/06/10 09:27:44;;;;;;;0.30;0.30;;;26.20;1.00;;;;;;5034498;28;20214;-77
2022/06/10 09:30:13;;;;;;;0.50;0.50;;;26.60;1.00;;;;;;5059620;22;20255;-74
2022/06/10 09:32:47;;;;;;;0.40;0.40;;;26.90;1.00;;;;;;5040314;28;20253;-72
2022/06/10 09:35:38;;;;;;;0.30;0.30;;;26.80;1.00;;;;;;5042624;28;20176;-72
2022/06/10 09:38:08;;;;;;;0.40;0.40;;;26.90;1.00;;;;;;5028111;28;20215;-73
2022/06/10 09:40:42;;;;;;;0.50;0.50;;;27.10;1.00;;;;;;5033910;28;20553;-72
2022/06/10 09:43:14;;;;;;;0.50;0.50;;;27.40;1.00;;;;;;5037608;28;20207;-72
2022/06/10 09:45:50;;;;;;;0.40;0.40;;;27.10;1.00;;;;;;5034387;28;20175;-73
2022/06/10 09:48:53;;;;;;;0.40;0.40;;;26.80;1.00;;;;;;5034344;28;20299;-72
2022/06/10 09:51:25;;;;;;;0.60;0.60;;;26.80;1.00;;;;;;5026301;28;20221;-72
2022/06/10 09:54:22;;;;;;;0.40;0.40;;;26.40;1.00;;;;;;5034468;28;20713;-74
2022/06/10 09:56:56;;;;;;;0.50;0.50;;;26.40;1.00;;;;;;5034519;28;20175;-73
2022/06/10 09:59:33;;;;;;;0.50;0.50;;;26.20;1.00;;;;;;5033680;28;20176;-71
2022/06/10 10:02:21;;;;;;;0.40;0.40;;;26.30;1.00;;;;;;5033959;28;20223;-71
2022/06/10 10:04:47;;;;;;;0.50;0.50;;;26.10;1.00;;;;;;5030697;28;20258;-73
2022/06/10 10:07:26;;;;;;;0.40;0.40;;;25.90;1.00;;;;;;5033029;28;20203;-73
2022/06/10 10:10:20;;;;;;;0.50;0.50;;;26.50;1.00;;;;;;5033442;28;20168;-72
2022/06/10 10:13:01;;;;;;;0.50;0.50;;;27.00;1.00;;;;;;5033005;28;20218;-72
2022/06/10 10:15:42;;;;;;;0.40;0.40;;;27.20;1.00;;;;;;5033869;28;20168;-71
2022/06/10 10:18:25;;;;;;;0.50;0.50;;;27.40;1.00;;;;;;5033962;28;20182;-73
2022/06/10 10:21:02;;;;;;;0.40;0.40;;;27.00;1.00;;;;;;5032844;28;20199;-75
2022/06/10 10:23:46;;;;;;;0.40;0.40;;;26.60;1.00;;;;;;5031319;28;20179;-73
2022/06/10 10:26:26;;;;;;;0.50;0.50;;;26.60;1.00;;;;;;5028563;28;20199;-75
2022/06/10 10:28:59;;;;;;;0.43;0.43;;;26.60;1.00;;;;;;5031474;28;20206;-73
2022/06/10 10:31:28;;;;;;;0.50;0.50;;;26.70;1.00;;;;;;5033125;28;20238;-74
2022/06/10 10:33:54;;;;;;;0.40;0.40;;;26.80;1.00;;;;;;5031404;28;20258;-74
2022/06/10 10:36:24;;;;;;;0.50;0.50;;;26.90;1.00;;;;;;5030605;28;20877;-74
2022/06/10 10:38:52;;;;;;;0.50;0.50;;;26.70;1.00;;;;;;5030169;28;20168;-75
2022/06/10 10:41:17;;;;;;;0.50;0.50;;;26.80;1.00;;;;;;5047409;28;20226;-74
2022/06/10 10:43:46;;;;;;;0.40;0.40;;;26.70;1.00;;;;;;5030747;28;20179;-74
2022/06/10 10:46:35;;;;;;;0.40;0.40;;;26.40;1.00;;;;;;5033328;28;20183;-75
2022/06/10 10:49:04;;;;;;;0.37;0.37;;;26.40;1.00;;;;;;5025589;28;20649;-75
2022/06/10 10:51:38;;;;;;;0.40;0.40;;;26.70;1.00;;;;;;5033537;28;20192;-75
2022/06/10 10:54:15;;;;;;;0.30;0.30;;;26.60;1.00;;;;;;5050619;28;20216;-76
2022/06/10 10:56:41;;;;;;;0.50;0.50;;;26.80;1.00;;;;;;5037145;28;20575;-75
2022/06/10 10:59:31;;;;;;;0.50;0.50;;;26.80;1.00;;;;;;5032775;28;20698;-75
2022/06/10 11:01:58;;;;;;;0.30;0.30;;;26.80;1.00;;;;;;5033488;28;20220;-74
2022/06/10 11:04:38;;;;;;;0.43;0.43;;;26.40;1.00;;;;;;5035409;28;20202;-74
2022/06/10 11:07:04;;;;;;;0.40;0.40;;;26.00;1.00;;;;;;5037100;28;20203;-73
2022/06/10 11:09:31;;;;;;;0.37;0.37;;;26.00;1.00;;;;;;5036218;28;20246;-73
2022/06/10 11:12:01;;;;;;;0.40;0.40;;;26.10;1.00;;;;;;5032650;28;20315;-74
2022/06/10 11:14:36;;;;;;;0.40;0.40;;;26.30;1.00;;;;;;5030377;28;20544;-74
2022/06/10 11:17:11;;;;;;;0.40;0.40;;;25.90;1.00;;;;;;5038421;28;20183;-74
2022/06/10 11:19:37;;;;;;;0.43;0.43;;;26.10;1.00;;;;;;5032462;28;20265;-74
2022/06/10 11:22:09;;;;;;;0.40;0.40;;;26.40;1.00;;;;;;5036777;28;20760;-74
2022/06/10 11:24:39;;;;;;;0.40;0.40;;;26.60;1.00;;;;;;5030333;28;20251;-73
2022/06/10 11:27:38;;;;;;;0.40;0.40;;;26.70;1.00;;;;;;5032307;28;20644;-74
2022/06/10 11:30:10;;;;;;;0.50;0.50;;;27.20;1.00;;;;;;5031979;28;20344;-75
2022/06/10 11:32:48;;;;;;;0.40;0.40;;;27.40;1.00;;;;;;5032791;28;20192;-74
2022/06/10 11:35:32;;;;;;;0.40;0.40;;;27.30;1.00;;;;;;5031746;28;20191;-74
2022/06/10 11:38:00;;;;;;;0.50;0.50;;;27.00;1.00;;;;;;5031233;28;20204;-74
2022/06/10 11:40:34;;;;;;;0.40;0.40;;;27.00;1.00;;;;;;5031653;28;20195;-74
2022/06/10 11:43:08;;;;;;;0.30;0.30;;;27.10;1.00;;;;;;5028006;28;20691;-73
2022/06/10 11:45:43;;;;;;;0.30;0.30;;;27.00;1.00;;;;;;5032147;28;20614;-74
2022/06/10 11:48:18;;;;;;;0.40;0.40;;;26.90;1.00;;;;;;5032653;28;20270;-74
2022/06/10 11:50:52;;;;;;;0.43;0.43;;;27.00;1.00;;;;;;5029141;28;20190;-74
2022/06/10 11:53:39;;;;;;;0.40;0.40;;;27.00;1.00;;;;;;5029492;28;20799;-75
2022/06/10 12:01:49;;;;;;;0.40;0.40;;;26.20;1.00;;;;;;5029741;28;20239;-73
2022/06/10 12:04:23;;;;;;;0.40;0.40;;;26.10;1.00;;;;;;5042356;28;20189;-74
2022/06/10 12:06:54;;;;;;;0.43;0.43;;;26.40;1.00;;;;;;5048979;28;20829;-74
2022/06/10 12:09:26;;;;;;;0.50;0.50;;;26.80;1.00;;;;;;5042318;28;20230;-72
2022/06/10 12:12:04;;;;;;;0.50;0.50;;;27.00;1.00;;;;;;5026485;28;20278;-72
2022/06/10 12:14:45;;;;;;;0.50;0.50;;;27.50;1.00;;;;;;5026599;28;20184;-72
2022/06/10 12:17:24;;;;;;;0.40;0.40;;;27.80;1.00;;;;;;5029569;28;20172;-73
2022/06/10 12:19:59;;;;;;;0.40;0.40;;;28.00;1.00;;;;;;5031236;28;20198;-72
2022/06/10 12:22:26;;;;;;;0.30;0.30;;;28.10;1.00;;;;;;5034657;28;20225;-72
2022/06/10 12:24:52;;;;;;;0.50;0.50;;;28.10;1.00;;;;;;5027477;28;20187;-74
2022/06/10 12:27:27;;;;;;;0.50;0.50;;;27.90;1.00;;;;;;5029375;28;20187;-75
2022/06/10 12:30:02;;;;;;;0.57;0.57;;;28.00;1.00;;;;;;5028623;28;20230;-73
2022/06/10 12:32:39;;;;;;;0.50;0.50;;;28.00;1.00;;;;;;5028631;28;20203;-73
2022/06/10 12:35:07;;;;;;;0.50;0.50;;;28.20;1.00;;;;;;5027509;28;20175;-74
2022/06/10 12:37:53;;;;;;;0.50;0.50;;;28.30;1.00;;;;;;5031207;28;20191;-73
2022/06/10 12:40:37;;;;;;;0.40;0.40;;;28.30;1.00;;;;;;5028921;28;20176;-73
2022/06/10 12:43:26;;;;;;;0.40;0.40;;;28.40;1.00;;;;;;5024942;28;20688;-73
2022/06/10 12:45:56;;;;;;;0.57;0.57;;;28.20;1.00;;;;;;5027280;28;20226;-74
2022/06/10 12:48:26;;;;;;;0.50;0.50;;;28.00;1.00;;;;;;5029498;28;20663;-73
2022/06/10 12:50:54;;;;;;;0.40;0.40;;;27.90;1.00;;;;;;5030419;28;20188;-75
2022/06/10 12:53:50;;;;;;;0.50;0.50;;;27.60;1.00;;;;;;5027672;28;20191;-74
2022/06/10 12:56:27;;;;;;;0.50;0.50;;;27.20;1.00;;;;;;5031159;28;20207;-74
2022/06/10 12:59:07;;;;;;;0.30;0.30;;;26.80;1.00;;;;;;5030501;28;20175;-74
2022/06/10 13:01:33;;;;;;;0.37;0.37;;;26.50;1.00;;;;;;5028579;28;20298;-72
2022/06/10 13:04:11;;;;;;;0.40;0.40;;;26.20;1.00;;;;;;5030568;28;20701;-74
2022/06/10 13:06:48;;;;;;;0.50;0.50;;;26.20;1.00;;;;;;5030843;28;20184;-76
2022/06/10 13:09:15;;;;;;;0.47;0.47;;;26.40;1.00;;;;;;5025838;28;20207;-76
2022/06/10 13:11:40;;;;;;;0.50;0.50;;;26.60;1.00;;;;;;5028244;28;20762;-75
2022/06/10 13:14:09;;;;;;;0.40;0.40;;;27.10;1.00;;;;;;5028612;28;20440;-75
2022/06/10 13:16:40;;;;;;;0.40;0.40;;;27.20;1.00;;;;;;5030722;28;20194;-75
2022/06/10 13:19:39;;;;;;;0.40;0.40;;;26.90;1.00;;;;;;5030714;28;20599;-75
2022/06/10 13:22:19;;;;;;;0.40;0.40;;;26.80;1.00;;;;;;5028508;28;20245;-75
2022/06/10 13:24:54;;;;;;;0.40;0.40;;;26.60;1.00;;;;;;5028727;28;20266;-75
2022/06/10 13:27:26;;;;;;;0.40;0.40;;;26.50;1.00;;;;;;5028335;28;20233;-74
2022/06/10 13:29:58;;;;;;;0.40;0.40;;;26.40;1.00;;;;;;5033956;28;20191;-76
2022/06/10 13:32:24;;;;;;;0.50;0.50;;;26.70;1.00;;;;;;5028223;28;20272;-75
2022/06/10 13:34:54;;;;;;;0.30;0.30;;;27.10;1.00;;;;;;5037339;28;20222;-75
2022/06/10 13:37:22;;;;;;;0.50;0.50;;;27.40;1.00;;;;;;5029694;28;20213;-74